createdAt,value
2022-10-14T00:00:18.028Z,12.1
2022-10-14T00:02:35.562Z,11.2
2022-10-14T00:04:53.367Z,11.3
2022-10-14T00:07:10.916Z,11.4
2022-10-14T00:09:28.652Z,11.3
2022-10-14T00:11:46.277Z,11.4
2022-10-14T00:14:03.988Z,11.2
2022-10-14T00:16:22.126Z,11.2
2022-10-14T00:18:39.358Z,11.6
2022-10-14T00:20:56.676Z,11.1
2022-10-14T00:23:13.931Z,8.6
2022-10-14T00:25:31.541Z,7.7
2022-10-14T00:27:49.180Z,11.6
2022-10-14T00:30:07.082Z,11.1
2022-10-14T00:32:24.585Z,11.9
2022-10-14T00:34:42.358Z,11.3
2022-10-14T00:36:59.962Z,11.4
2022-10-14T00:39:17.778Z,11.6
2022-10-14T00:41:35.421Z,10.9
2022-10-14T00:43:54.413Z,10.9
2022-10-14T00:46:10.465Z,11.5
2022-10-14T00:48:27.887Z,9
2022-10-14T00:50:45.809Z,12
2022-10-14T00:53:03.406Z,11.4
2022-10-14T00:55:21.204Z,11.4
2022-10-14T00:57:38.709Z,11.2
2022-10-14T00:59:56.412Z,11.4
2022-10-14T01:02:14.079Z,11.3
2022-10-14T01:04:31.732Z,11.3
2022-10-14T01:06:49.165Z,8.4
2022-10-14T01:09:06.595Z,11.3
2022-10-14T01:11:24.369Z,11.4
2022-10-14T01:13:51.812Z,11
2022-10-14T01:16:08.111Z,8.6
2022-10-14T01:18:26.101Z,11.3
2022-10-14T01:20:42.918Z,8
2022-10-14T01:23:00.559Z,11.1
2022-10-14T01:25:18.179Z,10.9
2022-10-14T01:27:35.723Z,11.5
2022-10-14T01:29:53.503Z,11.2
2022-10-14T01:32:10.836Z,11.4
2022-10-14T01:34:28.457Z,10.7
2022-10-14T01:36:46.063Z,11.2
2022-10-14T01:39:03.606Z,11
2022-10-14T01:41:21.201Z,10.9
2022-10-14T01:43:38.761Z,10.5
2022-10-14T01:45:56.344Z,10.5
2022-10-14T01:48:13.883Z,10.6
2022-10-14T01:50:31.499Z,10.5
2022-10-14T01:52:49.025Z,10.9
2022-10-14T01:55:06.631Z,10.6
2022-10-14T01:57:24.174Z,10.9
2022-10-14T01:59:41.825Z,10.8
2022-10-14T02:01:59.396Z,11.3
2022-10-14T02:04:16.894Z,10.5
2022-10-14T02:06:34.280Z,10.3
2022-10-14T02:08:51.598Z,8.9
2022-10-14T02:11:09.204Z,11
2022-10-14T02:13:26.813Z,10.6
2022-10-14T02:15:44.605Z,10.7
2022-10-14T02:18:02.043Z,11.2
2022-10-14T02:20:19.936Z,10.4
2022-10-14T02:22:36.796Z,8.7
2022-10-14T02:24:54.376Z,10.8
2022-10-14T02:27:12.013Z,10.3
2022-10-14T02:29:29.666Z,10.9
2022-10-14T02:31:48.313Z,10.6
2022-10-14T02:34:05.167Z,10.5
2022-10-14T02:36:21.961Z,6.1
2022-10-14T02:38:39.598Z,10.7
2022-10-14T02:40:57.113Z,10.4
2022-10-14T02:43:14.772Z,10.5
2022-10-14T02:45:32.445Z,10.7
2022-10-14T02:47:49.862Z,10.9
2022-10-14T02:50:07.523Z,10.7
2022-10-14T02:52:25.162Z,10.6
2022-10-14T02:54:43.359Z,10.5
2022-10-14T02:57:00.262Z,10.8
2022-10-14T02:59:17.890Z,10.2
2022-10-14T03:01:37.661Z,10.6
2022-10-14T03:03:52.991Z,11.1
2022-10-14T03:06:10.461Z,10.5
2022-10-14T03:08:28.065Z,10.4
2022-10-14T03:10:45.831Z,10.6
2022-10-14T03:13:03.214Z,10.5
2022-10-14T03:15:20.809Z,10.2
2022-10-14T03:17:38.493Z,10.8
2022-10-14T03:19:55.995Z,10.6
2022-10-14T03:22:13.519Z,10.6
2022-10-14T03:24:31.120Z,10.4
2022-10-14T03:26:48.669Z,10.6
2022-10-14T03:29:06.236Z,10.3
2022-10-14T03:31:23.899Z,10.6
2022-10-14T03:33:41.562Z,10.5
2022-10-14T03:35:58.996Z,10.4
2022-10-14T03:38:17.252Z,10.8
2022-10-14T03:40:34.215Z,10.8
2022-10-14T03:42:51.856Z,10.1
2022-10-14T03:45:09.481Z,10.6
2022-10-14T03:47:27.223Z,10.8
2022-10-14T03:49:44.479Z,10.4
2022-10-14T03:52:01.823Z,7.6
2022-10-14T03:54:19.293Z,10.6
2022-10-14T03:56:36.790Z,10
2022-10-14T03:58:54.154Z,6.8
2022-10-14T04:01:11.724Z,9.9
2022-10-14T04:03:29.420Z,10.5
2022-10-14T04:05:46.850Z,10.4
2022-10-14T04:08:04.557Z,10.6
2022-10-14T04:10:22.096Z,10.2
2022-10-14T04:12:39.605Z,10.5
2022-10-14T04:14:56.942Z,6.2
2022-10-14T04:17:14.522Z,10.4
2022-10-14T04:19:32.006Z,10.3
2022-10-14T04:21:49.477Z,8.4
2022-10-14T04:24:08.467Z,10.3
2022-10-14T04:26:24.891Z,10.4
2022-10-14T04:28:42.521Z,10.4
2022-10-14T04:31:00.836Z,7.8
2022-10-14T04:33:17.751Z,10.5
2022-10-14T04:35:34.973Z,6.9
2022-10-14T04:37:52.461Z,9.9
2022-10-14T04:40:10.365Z,10.6
2022-10-14T04:42:27.775Z,10.4
2022-10-14T04:44:45.519Z,5.6
2022-10-14T04:47:03.008Z,10
2022-10-14T04:49:20.854Z,10.4
2022-10-14T04:51:38.154Z,5.9
2022-10-14T04:53:55.864Z,9.8
2022-10-14T04:56:13.272Z,7.9
2022-10-14T04:58:31.505Z,9.9
2022-10-14T05:00:48.777Z,10.4
2022-10-14T05:03:06.410Z,10.3
2022-10-14T05:05:24.187Z,10.4
2022-10-14T05:07:41.597Z,10.4
2022-10-14T05:09:59.229Z,7.3
2022-10-14T05:12:16.802Z,9.8
2022-10-14T05:14:34.711Z,10.8
2022-10-14T05:16:52.262Z,10.1
2022-10-14T05:19:10.187Z,10.3
2022-10-14T05:21:27.324Z,8.4
2022-10-14T05:23:44.999Z,10.1
2022-10-14T05:26:03.313Z,10.8
2022-10-14T05:28:20.564Z,10.3
2022-10-14T05:30:38.270Z,10.9
2022-10-14T05:32:55.736Z,10.2
2022-10-14T05:35:13.344Z,7.3
2022-10-14T05:37:46.367Z,10.5
2022-10-14T05:40:04.015Z,10.6
2022-10-14T05:42:22.050Z,10.8
2022-10-14T05:44:39.692Z,10.6
2022-10-14T05:46:57.023Z,11.1
2022-10-14T05:49:14.655Z,10.6
2022-10-14T05:51:32.537Z,10.7
2022-10-14T05:53:50.742Z,11.1
2022-10-14T05:56:08.009Z,11.1
2022-10-14T05:58:25.509Z,11.3
2022-10-14T06:00:43.127Z,10.4
2022-10-14T06:03:00.663Z,10.8
2022-10-14T06:05:18.484Z,11.7
2022-10-14T06:07:36.163Z,11.8
2022-10-14T06:09:53.912Z,11
2022-10-14T06:12:11.735Z,12.1
2022-10-14T06:14:29.064Z,11.7
2022-10-14T06:16:46.755Z,10.5
2022-10-14T06:19:04.320Z,11.6
2022-10-14T06:21:22.277Z,12.3
2022-10-14T06:23:39.914Z,11.9
2022-10-14T06:25:57.734Z,12
2022-10-14T06:28:15.488Z,11.8
2022-10-14T06:30:33.793Z,11.6
2022-10-14T06:32:51.126Z,11.8
2022-10-14T06:35:08.555Z,12.2
2022-10-14T06:37:26.347Z,12
2022-10-14T06:39:44.077Z,11.8
2022-10-14T06:42:01.911Z,12.1
2022-10-14T06:44:19.480Z,11.9
2022-10-14T06:46:37.377Z,12.2
2022-10-14T06:48:54.975Z,12.1
2022-10-14T06:51:12.872Z,12.3
2022-10-14T06:53:30.891Z,12.3
2022-10-14T06:55:48.110Z,12.3
2022-10-14T06:58:05.973Z,12.4
2022-10-14T07:00:23.534Z,12.7
2022-10-14T07:02:41.346Z,12.3
2022-10-14T07:04:58.954Z,12.4
2022-10-14T07:07:16.810Z,11.7
2022-10-14T07:09:34.435Z,12.3
2022-10-14T07:11:52.705Z,12.2
2022-10-14T07:14:09.930Z,12.8
2022-10-14T07:16:28.097Z,12.3
2022-10-14T07:18:45.486Z,12.3
2022-10-14T07:21:03.133Z,12.5
2022-10-14T07:23:21.033Z,12.9
2022-10-14T07:25:38.601Z,12.6
2022-10-14T07:27:56.324Z,12.8
2022-10-14T07:30:15.223Z,9.2
2022-10-14T07:32:31.569Z,12.3
2022-10-14T07:34:49.083Z,13.1
2022-10-14T07:37:06.793Z,9.2
2022-10-14T07:39:24.345Z,11.8
2022-10-14T07:41:42.023Z,12.9
2022-10-14T07:43:59.985Z,12.1
2022-10-14T07:46:17.706Z,12.3
2022-10-14T07:48:45.214Z,12.8
2022-10-14T07:51:00.809Z,12.4
2022-10-14T07:53:18.399Z,12.8
2022-10-14T07:55:36.226Z,12.6
2022-10-14T07:57:53.662Z,12.6
2022-10-14T08:00:11.360Z,12.6
2022-10-14T08:02:29.108Z,12.3
2022-10-14T08:04:46.327Z,12.8
2022-10-14T08:07:17.336Z,10.3
2022-10-14T08:09:34.997Z,12.1
2022-10-14T08:11:52.655Z,13
2022-10-14T08:14:10.346Z,13.2
2022-10-14T08:16:27.985Z,13
2022-10-14T08:18:45.433Z,13.6
2022-10-14T08:21:03.034Z,6.7
2022-10-14T08:23:20.725Z,12.8
2022-10-14T08:25:38.310Z,12.8
2022-10-14T08:27:56.110Z,13.1
2022-10-14T08:30:13.539Z,13
2022-10-14T08:32:31.160Z,7.2
2022-10-14T08:34:48.605Z,12.2
2022-10-14T08:37:06.330Z,13.3
2022-10-14T08:39:23.934Z,13.1
2022-10-14T08:41:41.546Z,13.7
2022-10-14T08:43:59.146Z,13.3
2022-10-14T08:46:16.792Z,13.4
2022-10-14T08:48:35.050Z,13.3
2022-10-14T08:50:52.117Z,13.3
2022-10-14T08:53:09.771Z,13.1
2022-10-14T08:55:27.325Z,13.1
2022-10-14T08:57:44.935Z,13.3
2022-10-14T09:00:02.637Z,13.6
2022-10-14T09:02:20.519Z,13.4
2022-10-14T09:04:37.903Z,13.3
2022-10-14T09:06:55.388Z,13.7
2022-10-14T09:09:13.158Z,13.5
2022-10-14T09:11:33.491Z,14.1
2022-10-14T09:13:48.246Z,12.4
2022-10-14T09:16:05.739Z,14.6
2022-10-14T09:18:23.419Z,14.6
2022-10-14T09:20:40.854Z,15.1
2022-10-14T09:23:06.839Z,10.1
2022-10-14T09:25:24.884Z,14.8
2022-10-14T09:27:41.902Z,13.1
2022-10-14T09:29:59.282Z,14.4
2022-10-14T09:32:16.985Z,16
2022-10-14T09:34:35.031Z,11.7
2022-10-14T09:39:09.902Z,15.6
2022-10-14T09:41:27.331Z,16.1
2022-10-14T09:43:44.978Z,15.7
2022-10-14T09:46:02.765Z,16.2
2022-10-14T09:48:20.323Z,15.9
2022-10-14T09:50:37.847Z,15.7
2022-10-14T09:52:55.566Z,15.4
2022-10-14T09:55:13.035Z,16.1
2022-10-14T09:57:30.555Z,15.5
2022-10-14T09:59:48.429Z,15.6
2022-10-14T10:02:05.808Z,16.1
2022-10-14T10:04:23.152Z,14.2
2022-10-14T10:06:40.764Z,15.7
2022-10-14T10:08:58.403Z,15.1
2022-10-14T10:11:16.057Z,15.6
2022-10-14T10:13:33.477Z,15.8
2022-10-14T10:15:50.893Z,10.9
2022-10-14T10:18:08.534Z,9.3
2022-10-14T10:20:26.110Z,16.1
2022-10-14T10:22:43.803Z,15.5
2022-10-14T10:25:01.198Z,16.9
2022-10-14T10:27:18.698Z,12.1
2022-10-14T10:29:36.273Z,17.2
2022-10-14T10:31:53.681Z,16.3
2022-10-14T10:34:11.113Z,14.6
2022-10-14T10:36:41.707Z,13.5
2022-10-14T10:38:46.265Z,19.5
2022-10-14T10:41:03.922Z,17.4
2022-10-14T10:43:21.584Z,17.4
2022-10-14T10:45:39.506Z,18
2022-10-14T10:47:56.678Z,20.2
2022-10-14T10:50:14.221Z,16.6
2022-10-14T10:52:32.026Z,20.8
2022-10-14T10:54:49.611Z,21
2022-10-14T10:57:07.280Z,19.1
2022-10-14T10:59:24.840Z,17.7
2022-10-14T11:01:42.561Z,18.3
2022-10-14T11:04:00.218Z,18.1
2022-10-14T11:06:17.692Z,18.8
2022-10-14T11:08:35.411Z,17.6
2022-10-14T11:10:52.847Z,17.3
2022-10-14T11:13:10.242Z,17.9
2022-10-14T11:15:27.507Z,14.9
2022-10-14T11:17:45.116Z,14.8
2022-10-14T11:20:03.153Z,17.1
2022-10-14T11:22:20.539Z,17.9
2022-10-14T11:24:37.582Z,18.1
2022-10-14T11:26:54.870Z,17.8
2022-10-14T11:29:12.124Z,17.4
2022-10-14T11:31:29.711Z,18
2022-10-14T11:33:46.895Z,17.9
2022-10-14T11:36:04.113Z,17.9
2022-10-14T11:38:21.458Z,17.4
2022-10-14T11:40:38.734Z,17.3
2022-10-14T11:42:55.998Z,17.5
2022-10-14T11:45:14.998Z,18.1
2022-10-14T11:47:30.635Z,17.8
2022-10-14T11:49:48.066Z,17.4
2022-10-14T11:52:05.207Z,17.9
2022-10-14T11:54:22.426Z,17.4
2022-10-14T11:56:39.792Z,17.1
2022-10-14T11:58:57.025Z,17.3
2022-10-14T12:01:14.491Z,16.9
2022-10-14T12:03:31.617Z,17.1
2022-10-14T12:08:06.178Z,16.9
2022-10-14T12:10:23.416Z,16.9
2022-10-14T12:12:40.761Z,13.4
2022-10-14T12:14:58.087Z,15.1
2022-10-14T12:17:17.538Z,18.6
2022-10-14T12:19:32.765Z,10.1
2022-10-14T12:21:50.736Z,14.8
2022-10-14T12:24:07.795Z,12.3
2022-10-14T12:26:25.273Z,10.9
2022-10-14T12:28:42.821Z,15.4
2022-10-14T12:31:00.553Z,9.4
2022-10-14T12:33:22.478Z,12.9
2022-10-14T12:35:35.294Z,8.3
2022-10-14T12:37:52.548Z,17.6
2022-10-14T12:40:10.133Z,10.4
2022-10-14T12:42:27.497Z,12.3
2022-10-14T12:44:45.044Z,10.1
2022-10-14T12:47:02.548Z,12.1
2022-10-14T12:49:20.054Z,13.2
2022-10-14T12:51:37.446Z,16.6
2022-10-14T12:53:55.426Z,15.9
2022-10-14T12:56:12.175Z,11.8
2022-10-14T12:58:29.778Z,15.6
2022-10-14T13:00:47.143Z,15.6
2022-10-14T13:03:05.024Z,15.8
2022-10-14T13:05:22.164Z,16.5
2022-10-14T13:07:53.636Z,16.2
2022-10-14T13:10:10.992Z,15.9
2022-10-14T13:12:28.138Z,15.7
2022-10-14T13:14:45.550Z,16.1
2022-10-14T13:17:02.927Z,15.9
2022-10-14T13:19:20.151Z,15.4
2022-10-14T13:21:37.539Z,15.7
2022-10-14T13:23:54.692Z,15.6
2022-10-14T13:26:12.052Z,15.6
2022-10-14T13:28:29.634Z,15.6
2022-10-14T13:30:46.672Z,15.8
2022-10-14T13:33:03.942Z,15.4
2022-10-14T13:35:21.332Z,14.9
2022-10-14T13:37:42.014Z,15.3
2022-10-14T13:39:55.842Z,15.2
2022-10-14T13:42:13.129Z,15
2022-10-14T13:44:30.541Z,15
2022-10-14T13:46:47.863Z,14.9
2022-10-14T13:49:05.171Z,14.8
2022-10-14T13:51:37.904Z,14.8
2022-10-14T13:53:44.043Z,15
2022-10-14T13:56:00.952Z,14.9
2022-10-14T13:58:59.212Z,15
2022-10-14T14:01:49.159Z,15
2022-10-14T14:04:07.236Z,14.9
2022-10-14T14:06:23.786Z,15.1
2022-10-14T14:09:54.216Z,14.9
2022-10-14T14:12:29.638Z,14.6
2022-10-14T14:14:47.121Z,14.9
2022-10-14T14:17:04.253Z,15.1
2022-10-14T14:19:29.527Z,14.8
2022-10-14T14:21:46.598Z,15.1
2022-10-14T14:24:04.093Z,14.9
2022-10-14T14:26:51.062Z,14
2022-10-14T14:29:08.480Z,14.2
2022-10-14T14:31:30.423Z,13.6
2022-10-14T14:33:58.516Z,14.4
2022-10-14T14:36:22.375Z,8.5
2022-10-14T14:38:58.777Z,9
2022-10-14T14:41:16.502Z,9.1
2022-10-14T14:43:35.768Z,13.5
2022-10-14T14:45:59.038Z,13.7
2022-10-14T14:48:16.881Z,13
2022-10-14T14:50:47.034Z,13.6
2022-10-14T14:53:04.704Z,13.9
2022-10-14T14:55:22.426Z,13.6
2022-10-14T14:57:39.978Z,13.7
2022-10-14T14:59:57.976Z,13.4
2022-10-14T15:02:15.056Z,11
2022-10-14T15:04:47.234Z,11.8
2022-10-14T15:07:05.020Z,10.3
2022-10-14T15:09:22.604Z,14.7
2022-10-14T15:11:40.360Z,12.8
2022-10-14T15:13:57.992Z,12.3
2022-10-14T15:16:15.559Z,13.1
2022-10-14T15:18:33.915Z,13.5
2022-10-14T15:20:51.047Z,13.3
2022-10-14T15:23:08.489Z,13
2022-10-14T15:25:26.021Z,13.1
2022-10-14T15:27:46.592Z,9.6
2022-10-14T15:30:00.892Z,11.4
2022-10-14T15:32:18.748Z,13.3
2022-10-14T15:34:36.148Z,12.6
2022-10-14T15:36:53.919Z,13.3
2022-10-14T15:39:11.326Z,13
2022-10-14T15:41:28.806Z,10.4
2022-10-14T15:43:46.471Z,12.6
2022-10-14T15:46:04.205Z,10.5
2022-10-14T15:48:21.528Z,12.7
2022-10-14T15:50:39.177Z,12.4
2022-10-14T15:52:56.813Z,12.5
2022-10-14T15:55:14.435Z,12.6
2022-10-14T15:57:32.256Z,12.3
2022-10-14T15:59:49.755Z,12.5
2022-10-14T16:02:07.113Z,12.6
2022-10-14T16:04:24.865Z,7.5
2022-10-14T16:06:54.025Z,12.8
2022-10-14T16:09:11.792Z,12.6
2022-10-14T16:11:30.217Z,12.3
2022-10-14T16:13:47.079Z,13
2022-10-14T16:16:04.801Z,12.8
2022-10-14T16:18:22.400Z,12.6
2022-10-14T16:20:40.593Z,12.4
2022-10-14T16:22:57.625Z,12.4
2022-10-14T16:25:15.927Z,12.1
2022-10-14T16:27:32.944Z,12.6
2022-10-14T16:29:50.399Z,12.9
2022-10-14T16:32:08.006Z,7.4
2022-10-14T16:34:25.652Z,11.5
2022-10-14T16:36:43.531Z,12.4
2022-10-14T16:39:00.803Z,12.3
2022-10-14T16:41:18.378Z,8.3
2022-10-14T16:43:36.061Z,11.5
2022-10-14T16:45:53.722Z,11.8
2022-10-14T16:48:11.195Z,11.8
2022-10-14T16:50:28.568Z,8.6
2022-10-14T16:52:46.185Z,14
2022-10-14T16:55:03.949Z,11.2
2022-10-14T16:57:21.907Z,11.9
2022-10-14T16:59:39.191Z,12.3
2022-10-14T17:01:56.644Z,7.9
2022-10-14T17:04:14.134Z,13.1
2022-10-14T17:06:31.954Z,12.7
2022-10-14T17:08:49.543Z,11.8
2022-10-14T17:11:07.359Z,12.1
2022-10-14T17:13:24.852Z,11.6
2022-10-14T17:15:42.446Z,11.9
2022-10-14T17:18:00.013Z,8.8
2022-10-14T17:20:17.464Z,11.6
2022-10-14T17:22:35.223Z,7.8
2022-10-14T17:24:52.707Z,11.2
2022-10-14T17:27:10.221Z,8.7
2022-10-14T17:29:27.806Z,12.5
2022-10-14T17:31:45.322Z,6.2
2022-10-14T17:34:03.072Z,12.6
2022-10-14T17:36:20.561Z,12.1
2022-10-14T17:38:38.150Z,7.8
2022-10-14T17:40:55.706Z,12.3
2022-10-14T17:43:13.649Z,6.7
2022-10-14T17:45:30.745Z,13.1
2022-10-14T17:47:48.681Z,7.6
2022-10-14T17:50:06.079Z,11
2022-10-14T17:52:23.551Z,12.3
2022-10-14T17:54:41.295Z,10.3
2022-10-14T17:56:58.674Z,12.3
2022-10-14T17:59:16.288Z,8.2
2022-10-14T18:01:37.584Z,11.4
2022-10-14T18:03:51.530Z,6.3
2022-10-14T18:06:09.122Z,11.8
2022-10-14T18:08:26.839Z,12.4
2022-10-14T18:10:44.579Z,12.3
2022-10-14T18:13:16.942Z,12.3
2022-10-14T18:15:34.768Z,12.3
2022-10-14T18:17:52.429Z,12.4
2022-10-14T18:20:09.951Z,12.5
2022-10-14T18:22:27.577Z,12.5
2022-10-14T18:24:44.991Z,12.4
2022-10-14T18:27:02.638Z,8.1
2022-10-14T18:29:20.270Z,11.3
2022-10-14T18:31:38.080Z,11.4
2022-10-14T18:33:55.632Z,11.8
2022-10-14T18:36:13.178Z,11.6
2022-10-14T18:38:30.753Z,8.3
2022-10-14T18:40:48.451Z,10.6
2022-10-14T18:43:05.916Z,11.3
2022-10-14T18:45:23.493Z,5.4
2022-10-14T18:47:40.968Z,6.4
2022-10-14T18:49:58.608Z,10.9
2022-10-14T18:52:16.257Z,10.8
2022-10-14T18:54:34.297Z,11.1
2022-10-14T18:56:51.590Z,11
2022-10-14T18:59:09.328Z,10.6
2022-10-14T19:01:27.032Z,10.4
2022-10-14T19:03:44.754Z,10.6
2022-10-14T19:06:02.233Z,10.9
2022-10-14T19:08:20.390Z,10.6
2022-10-14T19:10:37.591Z,10.5
2022-10-14T19:12:55.212Z,10.3
2022-10-14T19:15:12.941Z,10.6
2022-10-14T19:17:30.402Z,11
2022-10-14T19:19:47.820Z,3.5
2022-10-14T19:22:05.516Z,10.4
2022-10-14T19:24:23.139Z,10.6
2022-10-14T19:26:40.952Z,11.3
2022-10-14T19:28:58.643Z,10.8
2022-10-14T19:31:16.207Z,10.4
2022-10-14T19:33:33.828Z,10.7
2022-10-14T19:35:51.518Z,10.6
2022-10-14T19:38:09.173Z,10.1
2022-10-14T19:40:27.388Z,10.2
2022-10-14T19:42:44.256Z,7.3
2022-10-14T19:45:01.802Z,9.6
2022-10-14T19:47:20.572Z,10.1
2022-10-14T19:49:38.034Z,10.1
2022-10-14T19:51:55.885Z,10.6
2022-10-14T19:54:13.445Z,10.7
2022-10-14T19:56:31.388Z,10.8
2022-10-14T19:58:49.017Z,10.3
2022-10-14T20:01:07.020Z,10.3
2022-10-14T20:03:24.392Z,10.5
2022-10-14T20:05:41.960Z,5.9
2022-10-14T20:07:59.807Z,10.1
2022-10-14T20:10:17.577Z,10.7
2022-10-14T20:12:35.416Z,10.7
2022-10-14T20:14:53.089Z,10.5
2022-10-14T20:17:10.880Z,10.4
2022-10-14T20:19:28.364Z,6.5
2022-10-14T20:21:46.149Z,10.1
2022-10-14T20:24:03.625Z,6.5
2022-10-14T20:26:21.429Z,9.8
2022-10-14T20:28:39.078Z,6.6
2022-10-14T20:30:56.395Z,10.5
2022-10-14T20:33:14.389Z,5.6
2022-10-14T20:35:32.003Z,10.6
2022-10-14T20:37:49.815Z,11.1
2022-10-14T20:40:07.566Z,10.4
2022-10-14T20:42:25.198Z,10.9
2022-10-14T20:44:42.677Z,6.6
2022-10-14T20:47:00.408Z,10.3
2022-10-14T20:49:17.834Z,6.8
2022-10-14T20:51:35.565Z,10.8
2022-10-14T20:53:54.492Z,10.9
2022-10-14T20:56:11.161Z,10.6
2022-10-14T20:58:28.982Z,11.1
2022-10-14T21:00:47.341Z,11.3
2022-10-14T21:03:04.544Z,10.9
2022-10-14T21:05:22.186Z,11.2
2022-10-14T21:07:40.544Z,10.4
2022-10-14T21:09:57.710Z,10.9
2022-10-14T21:12:15.475Z,11.3
2022-10-14T21:14:32.898Z,6.3
2022-10-14T21:16:50.658Z,10.6
2022-10-14T21:19:08.579Z,10.4
2022-10-14T21:21:26.233Z,10.6
2022-10-14T21:23:44.330Z,10.6
2022-10-14T21:26:01.902Z,10.4
2022-10-14T21:28:19.481Z,10.6
2022-10-14T21:30:36.893Z,5
2022-10-14T21:32:54.871Z,10.2
2022-10-14T21:35:12.382Z,10.6
2022-10-14T21:37:29.750Z,5.3
2022-10-14T21:39:47.748Z,10.9
2022-10-14T21:42:05.282Z,10.9
2022-10-14T21:44:26.051Z,11.1
2022-10-14T21:46:40.871Z,10.6
2022-10-14T21:48:58.582Z,10.9
2022-10-14T21:51:16.008Z,7
2022-10-14T21:53:33.830Z,10.7
2022-10-14T21:55:51.558Z,10.9
2022-10-14T21:58:09.441Z,11.1
2022-10-14T22:00:27.320Z,11.3
2022-10-14T22:02:44.799Z,11.5
2022-10-14T22:05:02.637Z,11
2022-10-14T22:07:20.779Z,10.8
2022-10-14T22:09:38.302Z,10.9
2022-10-14T22:11:55.879Z,11.4
2022-10-14T22:14:13.805Z,11.1
2022-10-14T22:16:31.249Z,11.4
2022-10-14T22:18:48.931Z,5.8
2022-10-14T22:21:06.401Z,7.8
2022-10-14T22:23:23.960Z,11.4
2022-10-14T22:25:41.703Z,8.1
2022-10-14T22:27:59.160Z,11.2
2022-10-14T22:30:16.945Z,6.1
2022-10-14T22:32:34.341Z,12.2
2022-10-14T22:34:52.432Z,11.1
2022-10-14T22:37:10.001Z,10.9
2022-10-14T22:39:27.726Z,11.1
2022-10-14T22:41:45.559Z,11.3
2022-10-14T22:44:03.302Z,11.4
2022-10-14T22:46:20.964Z,11.1
2022-10-14T22:48:38.619Z,11.4
2022-10-14T22:50:56.620Z,11.6
2022-10-14T22:53:14.214Z,11.3
2022-10-14T22:55:32.253Z,11.4
2022-10-14T22:57:49.790Z,10.9
2022-10-14T23:00:07.690Z,11
2022-10-14T23:02:25.807Z,11.5
2022-10-14T23:04:43.252Z,11.6
2022-10-14T23:07:03.037Z,11.1
2022-10-14T23:09:18.507Z,10.9
2022-10-14T23:11:36.465Z,11.4
2022-10-14T23:13:54.139Z,11.6
2022-10-14T23:16:11.942Z,11.5
2022-10-14T23:18:29.811Z,11.6
2022-10-14T23:20:47.376Z,11.6
2022-10-14T23:23:04.742Z,8.9
2022-10-14T23:25:22.643Z,10.8
2022-10-14T23:27:40.398Z,11.2
2022-10-14T23:29:58.301Z,11.3
2022-10-14T23:32:15.787Z,11.8
2022-10-14T23:34:33.238Z,7.4
2022-10-14T23:36:51.189Z,11.8
2022-10-14T23:39:08.770Z,10.6
2022-10-14T23:41:26.391Z,10.8
2022-10-14T23:43:43.841Z,9.6
2022-10-14T23:46:01.504Z,9.8
2022-10-14T23:48:19.002Z,8.3
2022-10-14T23:50:43.772Z,9.8
2022-10-14T23:53:01.181Z,10.4
2022-10-14T23:55:18.751Z,9.9
2022-10-14T23:57:36.349Z,9.8
2022-10-14T23:59:53.731Z,10.1
